Time;durP1;ratioP1;P1;durP2;ratioP2;P2;SDS_P1;SDS_P2;PMS_P1;PMS_P2;Temp;Humidity;BMP_temperature;BMP_pressure;BME280_temperature;BME280_humidity;BME280_pressure;Samples;Min_cycle;Max_cycle;Signal;HPM_P1;HPM_P2
2024/04/15 00:01:47;;;;;;;6.00;3.35;;;;;;;9.70;100.00;101395.97;11068815;26;20000;-72
2024/04/15 00:06:47;;;;;;;5.65;2.10;;;;;;;9.73;100.00;101390.19;11069393;26;20136;-71
2024/04/15 00:11:48;;;;;;;5.97;2.10;;;;;;;9.84;100.00;101380.84;11071014;26;20029;-72
2024/04/15 00:16:48;;;;;;;12.88;3.35;;;;;;;9.90;100.00;101363.88;11069985;26;20075;-72
2024/04/15 00:21:48;;;;;;;11.75;2.50;;;;;;;9.97;100.00;101364.81;11070177;26;20417;-72
2024/04/15 00:26:49;;;;;;;11.70;2.97;;;;;;;10.05;100.00;101350.38;11068553;26;20005;-71
2024/04/15 00:31:49;;;;;;;6.93;2.75;;;;;;;10.15;100.00;101342.88;11066120;26;20011;-72
2024/04/15 00:36:50;;;;;;;8.85;2.78;;;;;;;10.13;100.00;101320.53;11066985;26;20008;-71
2024/04/15 00:41:50;;;;;;;9.43;3.30;;;;;;;10.19;100.00;101320.66;11067594;26;20001;-71
2024/04/15 00:46:50;;;;;;;17.48;3.72;;;;;;;10.24;100.00;101326.34;11065923;26;20000;-71
2024/04/15 00:51:51;;;;;;;11.20;4.57;;;;;;;10.35;100.00;101310.72;11067837;26;20427;-71
2024/04/15 00:56:51;;;;;;;4.75;2.53;;;;;;;10.42;100.00;101303.53;11065421;26;19997;-71
2024/04/15 01:01:52;;;;;;;22.52;5.05;;;;;;;10.47;100.00;101291.09;11066235;26;20073;-71
2024/04/15 01:06:52;;;;;;;6.05;3.40;;;;;;;10.54;100.00;101285.78;11037522;26;20012;-71
2024/04/15 01:11:52;;;;;;;14.20;4.15;;;;;;;10.59;100.00;101287.91;11067255;26;20044;-71
2024/04/15 01:16:53;;;;;;;13.57;4.05;;;;;;;10.55;100.00;101281.19;11065603;26;20321;-71
2024/04/15 01:21:53;;;;;;;7.22;2.33;;;;;;;10.42;100.00;101271.88;11066753;26;19997;-71
2024/04/15 01:26:54;;;;;;;10.20;2.70;;;;;;;10.43;100.00;101264.56;11065789;26;19997;-71
2024/04/15 01:31:54;;;;;;;6.95;2.80;;;;;;;10.36;100.00;101263.66;11065751;26;19996;-71
2024/04/15 01:36:54;;;;;;;11.10;3.72;;;;;;;10.32;100.00;101254.25;11064985;26;20017;-71
2024/04/15 01:41:55;;;;;;;6.53;3.05;;;;;;;10.28;100.00;101252.94;11064740;26;19997;-73
2024/04/15 01:46:55;;;;;;;7.32;3.40;;;;;;;10.30;100.00;101245.44;11064951;26;19997;-72
2024/04/15 01:51:55;;;;;;;19.50;3.78;;;;;;;10.33;100.00;101235.09;11067446;26;20007;-71
2024/04/15 01:56:56;;;;;;;10.75;3.30;;;;;;;10.30;100.00;101230.03;11066797;26;20070;-72
2024/04/15 02:01:56;;;;;;;11.10;4.25;;;;;;;10.38;100.00;101218.28;11063752;26;20005;-70
2024/04/15 02:06:56;;;;;;;5.68;3.92;;;;;;;10.49;100.00;101212.38;11066528;26;20009;-71
2024/04/15 02:11:57;;;;;;;5.22;1.98;;;;;;;10.59;100.00;101199.41;11063121;26;19992;-71
2024/04/15 02:16:57;;;;;;;15.73;3.30;;;;;;;10.71;100.00;101210.56;11066115;26;20047;-72
2024/04/15 02:21:58;;;;;;;5.30;3.67;;;;;;;10.72;100.00;101204.13;11067607;26;20309;-71
2024/04/15 02:26:58;;;;;;;16.80;5.70;;;;;;;10.81;100.00;101189.41;11068538;26;19993;-71
2024/04/15 02:31:58;;;;;;;8.73;3.63;;;;;;;10.76;100.00;101191.03;11067763;26;20330;-72
2024/04/15 02:36:59;;;;;;;12.00;2.88;;;;;;;10.78;100.00;101170.84;11063837;26;20013;-71
2024/04/15 02:41:59;;;;;;;10.18;2.05;;;;;;;10.78;100.00;101165.41;11091201;26;19997;-71
2024/04/15 02:47:00;;;;;;;3.47;2.05;;;;;;;10.75;100.00;101157.69;11062407;26;20074;-71
2024/04/15 02:52:00;;;;;;;15.90;2.05;;;;;;;10.66;100.00;101158.84;11060794;26;19993;-71
2024/04/15 02:57:00;;;;;;;12.50;2.60;;;;;;;10.53;100.00;101147.84;11063894;26;19997;-73
2024/04/15 03:02:01;;;;;;;10.27;1.65;;;;;;;10.47;100.00;101141.34;11062909;26;19996;-72
2024/04/15 03:07:01;;;;;;;1.90;1.48;;;;;;;10.32;100.00;101135.97;11062411;26;20011;-71
2024/04/15 03:12:02;;;;;;;9.00;2.38;;;;;;;10.09;100.00;101143.34;11060065;26;20012;-71
2024/04/15 03:17:02;;;;;;;10.10;2.90;;;;;;;10.05;100.00;101120.38;11063189;26;20116;-73
2024/04/15 03:22:02;;;;;;;7.82;2.40;;;;;;;10.01;100.00;101111.81;11061683;26;20008;-71
2024/04/15 03:27:05;;;;;;;7.10;1.65;;;;;;;9.98;100.00;101104.91;11059152;26;20007;-71
2024/04/15 03:32:06;;;;;;;8.02;2.60;;;;;;;10.00;100.00;101105.56;11061553;26;20004;-72
2024/04/15 03:37:06;;;;;;;14.63;2.33;;;;;;;10.08;100.00;101084.84;11061311;26;20004;-71
2024/04/15 03:42:06;;;;;;;13.93;2.22;;;;;;;10.20;100.00;101076.03;11058252;26;20005;-71
2024/04/15 03:47:07;;;;;;;6.00;2.25;;;;;;;10.27;100.00;101070.72;11058621;26;20354;-71
2024/04/15 03:52:07;;;;;;;13.38;2.47;;;;;;;10.19;100.00;101057.28;11060860;26;20025;-71
2024/04/15 03:57:07;;;;;;;4.05;2.30;;;;;;;10.15;100.00;101048.72;11060870;26;19993;-71
2024/04/15 04:02:08;;;;;;;3.22;2.15;;;;;;;9.90;100.00;101040.09;11060438;26;20448;-71
2024/04/15 04:07:08;;;;;;;3.38;2.00;;;;;;;9.70;100.00;101036.28;11060335;26;20062;-71
2024/04/15 04:12:09;;;;;;;10.10;2.97;;;;;;;9.50;100.00;101023.34;11060145;26;20033;-71
2024/04/15 04:17:09;;;;;;;12.75;2.38;;;;;;;9.41;100.00;101023.66;11060449;26;20012;-71
2024/04/15 04:22:10;;;;;;;4.32;1.65;;;;;;;9.20;100.00;101016.28;11060111;26;20108;-71
2024/04/15 04:27:10;;;;;;;1.58;1.23;;;;;;;9.13;100.00;101015.38;11058811;26;20009;-71
2024/04/15 04:32:10;;;;;;;8.75;3.10;;;;;;;9.06;100.00;101008.00;11059296;26;20029;-71
2024/04/15 04:37:12;;;;;;;10.73;2.72;;;;;;;8.98;100.00;101001.84;11066412;26;19996;-72
2024/04/15 04:42:12;;;;;;;4.22;3.30;;;;;;;8.91;100.00;100984.69;11063523;26;20003;-71
2024/04/15 04:47:14;;;;;;;12.40;2.72;;;;;;;8.82;100.00;100975.84;11065112;26;19997;-71
2024/04/15 04:52:14;;;;;;;15.60;2.67;;;;;;;8.79;100.00;100979.72;11064125;26;20017;-71
2024/04/15 04:57:15;;;;;;;10.45;2.20;;;;;;;8.81;100.00;100949.88;11065165;26;20025;-72
2024/04/15 05:02:15;;;;;;;8.73;3.10;;;;;;;8.79;100.00;100950.03;11063095;26;20337;-72
2024/04/15 05:07:16;;;;;;;4.20;1.58;;;;;;;8.89;100.00;100952.47;11063073;26;20367;-72
2024/04/15 05:12:16;;;;;;;2.15;1.75;;;;;;;9.01;100.00;100940.19;11065278;26;20012;-72
2024/04/15 05:17:17;;;;;;;3.08;2.08;;;;;;;9.05;100.00;100941.47;11062952;26;20060;-71
2024/04/15 05:22:17;;;;;;;7.10;2.00;;;;;;;9.08;100.00;100941.09;11065101;26;19993;-72
2024/04/15 05:27:17;;;;;;;20.58;2.53;;;;;;;9.35;100.00;100943.31;11065616;26;19997;-71
2024/04/15 05:32:18;;;;;;;9.57;1.85;;;;;;;9.53;100.00;100931.06;11064273;26;20437;-72
2024/04/15 05:37:18;;;;;;;5.88;1.67;;;;;;;9.70;100.00;100929.00;11064460;26;19993;-71
2024/04/15 05:42:18;;;;;;;13.93;3.72;;;;;;;9.64;100.00;100935.16;11063487;26;19989;-71
2024/04/15 05:47:20;;;;;;;2.95;1.70;;;;;;;9.57;100.00;100909.91;11062619;26;20500;-71
2024/04/15 05:52:20;;;;;;;13.45;3.65;;;;;;;10.09;100.00;100911.50;11063621;26;20062;-71
2024/04/15 05:57:21;;;;;;;3.78;1.90;;;;;;;11.60;100.00;100900.97;11064084;26;20008;-72
2024/04/15 06:02:21;;;;;;;4.55;1.08;;;;;;;12.75;95.84;100893.53;11063832;26;20463;-71
2024/04/15 06:07:22;;;;;;;1.38;1.35;;;;;;;11.75;94.58;100882.66;11064603;26;19996;-72
2024/04/15 06:12:22;;;;;;;3.20;2.67;;;;;;;12.84;96.13;100872.41;11064109;26;20004;-72
2024/04/15 06:17:22;;;;;;;7.70;2.60;;;;;;;13.80;89.28;100868.88;11033089;26;20340;-73
2024/04/15 06:22:23;;;;;;;5.18;2.55;;;;;;;12.82;84.37;100845.44;11061885;26;20029;-74
2024/04/15 06:27:23;;;;;;;14.05;2.83;;;;;;;12.09;90.21;100840.97;11032773;26;19997;-71
2024/04/15 06:32:24;;;;;;;3.65;2.28;;;;;;;11.63;93.28;100830.03;11061332;26;20033;-71
2024/04/15 06:37:24;;;;;;;6.78;3.00;;;;;;;11.43;97.54;100831.88;11061520;26;19996;-71
2024/04/15 06:42:25;;;;;;;8.00;1.98;;;;;;;11.27;100.00;100814.13;11062727;26;20007;-71
2024/04/15 06:47:25;;;;;;;10.55;2.58;;;;;;;11.30;100.00;100795.56;11062621;26;19997;-72
2024/04/15 06:52:26;;;;;;;5.90;3.30;;;;;;;11.53;100.00;100780.78;11060643;26;20034;-71
2024/04/15 06:57:26;;;;;;;6.47;2.58;;;;;;;11.70;100.00;100781.22;11060931;26;20007;-71
2024/04/15 07:02:26;;;;;;;6.88;3.28;;;;;;;11.37;100.00;100753.03;11061683;26;20008;-71
2024/04/15 07:07:27;;;;;;;5.75;2.63;;;;;;;11.35;100.00;100748.84;11061920;26;20043;-71
2024/04/15 07:12:27;;;;;;;2.60;2.40;;;;;;;11.45;100.00;100734.88;11060278;26;20024;-71
2024/04/15 07:17:27;;;;;;;4.28;2.72;;;;;;;11.29;100.00;100726.09;11062409;26;20008;-73
2024/04/15 07:22:29;;;;;;;12.77;4.05;;;;;;;11.31;100.00;100720.50;11060573;26;20071;-72
2024/04/15 07:27:32;;;;;;;11.45;3.30;;;;;;;11.56;100.00;100704.44;11059322;26;20070;-71
2024/04/15 07:32:33;;;;;;;6.40;3.25;;;;;;;11.27;100.00;100692.97;11059486;26;20399;-71
2024/04/15 07:37:33;;;;;;;4.40;3.90;;;;;;;11.16;100.00;100666.47;11061355;26;19997;-71
2024/04/15 07:42:36;;;;;;;8.57;3.13;;;;;;;11.21;100.00;100652.31;11060988;26;19997;-74
2024/04/15 07:47:36;;;;;;;7.45;3.47;;;;;;;11.41;100.00;100653.13;11029929;26;20436;-72
2024/04/15 07:52:36;;;;;;;8.18;3.63;;;;;;;11.19;100.00;100628.09;11061083;26;20012;-73
2024/04/15 07:57:37;;;;;;;6.50;3.05;;;;;;;11.08;100.00;100629.56;11059219;26;20001;-74
2024/04/15 08:02:37;;;;;;;9.98;3.08;;;;;;;11.18;100.00;100604.75;11061155;26;20001;-73
2024/04/15 08:07:38;;;;;;;2.45;2.30;;;;;;;11.29;100.00;100585.13;11064097;26;19996;-74
2024/04/15 08:12:38;;;;;;;7.53;2.30;;;;;;;11.46;100.00;100560.34;11036866;26;19989;-73
2024/04/15 08:17:39;;;;;;;9.90;3.05;;;;;;;11.43;100.00;100552.63;11036869;26;20000;-74
2024/04/15 08:22:40;;;;;;;3.85;2.95;;;;;;;11.16;100.00;100561.59;11067268;26;20305;-71
2024/04/15 08:27:41;;;;;;;6.80;3.10;;;;;;;11.02;100.00;100523.91;11066977;26;19989;-72
2024/04/15 08:32:41;;;;;;;4.00;2.60;;;;;;;11.12;100.00;100521.59;11065656;26;19997;-71
2024/04/15 08:37:41;;;;;;;2.53;1.98;;;;;;;11.41;100.00;100512.97;11065209;26;20007;-71
2024/04/15 08:42:49;;;;;;;7.93;2.22;;;;;;;11.40;100.00;100488.81;11065380;26;20008;-72
2024/04/15 08:47:52;;;;;;;2.35;1.92;;;;;;;11.72;100.00;100483.47;11063716;26;20036;-73
2024/04/15 08:52:53;;;;;;;3.65;2.15;;;;;;;11.90;100.00;100467.34;11063188;26;20104;-73
2024/04/15 08:57:54;;;;;;;4.47;2.92;;;;;;;12.02;100.00;100453.91;11062323;26;19993;-73
2024/04/15 09:02:55;;;;;;;3.30;1.73;;;;;;;12.24;100.00;100436.22;11062530;26;19997;-73
2024/04/15 09:07:55;;;;;;;2.70;2.00;;;;;;;11.98;100.00;100426.38;11064751;26;20435;-73
2024/04/15 09:12:56;;;;;;;8.88;2.65;;;;;;;11.74;100.00;100408.97;11062215;26;20028;-72
2024/04/15 09:17:56;;;;;;;2.97;1.63;;;;;;;10.83;100.00;100390.97;11062981;26;19993;-71
2024/04/15 09:23:00;;;;;;;8.45;2.38;;;;;;;10.22;100.00;100362.25;11063179;26;20008;-70
2024/04/15 09:28:04;;;;;;;6.63;3.05;;;;;;;10.00;100.00;100364.34;11034121;26;20017;-71
2024/04/15 09:33:05;;;;;;;4.03;2.78;;;;;;;9.99;100.00;100351.84;11062676;26;20417;-73
2024/04/15 09:38:08;;;;;;;6.07;3.38;;;;;;;10.02;100.00;100356.84;11064451;26;20007;-72
2024/04/15 09:43:12;;;;;;;34.78;4.95;;;;;;;9.92;100.00;100323.97;11033204;26;19997;-72
2024/04/15 09:48:16;;;;;;;5.13;2.83;;;;;;;9.87;100.00;100309.41;11062270;26;20398;-72
2024/04/15 09:53:19;;;;;;;8.90;2.63;;;;;;;10.04;100.00;100302.53;11035136;26;19993;-70
2024/04/15 09:58:20;;;;;;;6.47;3.38;;;;;;;9.96;100.00;100273.84;11062052;26;20425;-69
2024/04/15 10:03:21;;;;;;;0.30;0.30;;;;;;;10.24;100.00;100251.09;11033932;26;20028;-71
2024/04/15 10:08:21;;;;;;;0.50;0.50;;;;;;;9.99;100.00;100242.84;11032811;26;19993;-72
2024/04/15 10:13:21;;;;;;;0.40;0.40;;;;;;;10.38;100.00;100246.53;11062201;26;20008;-70
2024/04/15 10:18:22;;;;;;;0.50;0.50;;;;;;;10.82;100.00;100232.22;11063547;26;20329;-71
2024/04/15 10:23:24;;;;;;;6.72;2.08;;;;;;;10.96;100.00;100207.75;10989635;26;20008;-71
2024/04/15 10:28:25;;;;;;;6.57;1.98;;;;;;;10.92;100.00;100172.16;11061327;26;19993;-72
2024/04/15 10:33:25;;;;;;;8.77;2.60;;;;;;;11.36;100.00;100182.06;11061568;26;19989;-72
2024/04/15 10:38:28;;;;;;;5.93;1.75;;;;;;;11.72;100.00;100153.38;11061408;26;20365;-72
2024/04/15 10:43:29;;;;;;;3.45;1.55;;;;;;;12.02;100.00;100141.84;11059327;26;20011;-70
2024/04/15 10:48:30;;;;;;;5.47;2.08;;;;;;;11.86;100.00;100119.66;11059209;26;20358;-71
2024/04/15 10:53:30;;;;;;;10.27;3.03;;;;;;;11.95;100.00;100094.97;11060543;26;20128;-71
2024/04/15 10:58:31;;;;;;;8.23;2.95;;;;;;;11.77;100.00;100076.75;11060835;26;20001;-69
2024/04/15 11:03:31;;;;;;;2.75;2.42;;;;;;;11.76;100.00;100072.41;11062076;26;20305;-71
2024/04/15 11:08:32;;;;;;;14.63;2.72;;;;;;;12.22;100.00;100022.16;11016391;26;38052;-68
2024/04/15 11:13:32;;;;;;;5.03;1.52;;;;;;;12.10;100.00;100028.41;10928796;26;97099;-71
2024/04/15 11:18:32;;;;;;;4.53;2.38;;;;;;;11.26;100.00;100013.66;11030021;26;19997;-69
2024/04/15 11:23:33;;;;;;;7.43;2.17;;;;;;;11.32;100.00;99968.59;11058708;26;20301;-69
2024/04/15 11:28:34;;;;;;;13.70;2.97;;;;;;;11.50;100.00;99951.50;11029042;26;19989;-70
2024/04/15 11:33:34;;;;;;;4.00;2.13;;;;;;;11.88;100.00;99899.72;11060071;26;20025;-69
2024/04/15 11:38:35;;;;;;;7.40;2.30;;;;;;;11.36;100.00;99919.13;11057837;26;19992;-70
2024/04/15 11:43:36;;;;;;;0.40;0.40;;;;;;;10.53;100.00;99906.03;11063943;26;20005;-70
2024/04/15 11:48:37;;;;;;;0.30;0.30;;;;;;;9.84;100.00;99910.44;11066724;26;20316;-70
2024/04/15 11:53:37;;;;;;;0.38;0.38;;;;;;;9.48;100.00;100035.38;11066160;26;20023;-69
2024/04/15 11:58:38;;;;;;;0.80;0.80;;;;;;;6.69;100.00;100072.06;11064344;26;19993;-68
2024/04/15 12:03:38;;;;;;;0.43;0.43;;;;;;;5.36;100.00;100041.75;11064497;26;20486;-71
2024/04/15 12:08:39;;;;;;;0.43;0.43;;;;;;;5.65;100.00;100044.59;11065916;26;20286;-70
2024/04/15 12:13:40;;;;;;;1.48;1.48;;;;;;;5.88;100.00;100018.44;11064239;26;19992;-68
2024/04/15 12:18:40;;;;;;;0.50;0.50;;;;;;;6.22;100.00;100016.97;11065942;26;19997;-70
2024/04/15 12:23:41;;;;;;;1.80;1.70;;;;;;;6.50;100.00;100004.44;11001248;26;20537;-69
2024/04/15 12:28:42;;;;;;;0.60;0.60;;;;;;;6.54;100.00;99988.78;11065458;26;20040;-70
2024/04/15 12:33:42;;;;;;;0.50;0.50;;;;;;;6.50;100.00;99993.69;11064023;26;19992;-70
2024/04/15 12:38:43;;;;;;;0.50;0.50;;;;;;;6.50;100.00;99980.22;11063688;26;20063;-70
2024/04/15 12:43:44;;;;;;;3.05;2.88;;;;;;;6.68;100.00;99974.38;11065093;26;20094;-70
2024/04/15 12:48:44;;;;;;;0.68;0.68;;;;;;;6.87;100.00;99948.66;11062776;26;19989;-70
2024/04/15 12:53:45;;;;;;;0.43;0.43;;;;;;;6.81;100.00;99964.75;11063856;26;19988;-69
2024/04/15 12:58:45;;;;;;;4.47;3.72;;;;;;;6.76;100.00;99957.25;11064358;26;20033;-70
2024/04/15 13:03:45;;;;;;;0.40;0.40;;;;;;;7.07;100.00;99980.25;11064026;26;20477;-68
2024/04/15 13:08:46;;;;;;;0.60;0.60;;;;;;;7.49;100.00;99984.63;11063767;26;20001;-68
2024/04/15 13:13:46;;;;;;;0.50;0.50;;;;;;;7.98;100.00;99953.09;11062133;26;19993;-69
2024/04/15 13:18:47;;;;;;;2.88;2.78;;;;;;;7.62;100.00;99990.06;11063945;26;19993;-69
2024/04/15 13:23:50;;;;;;;0.50;0.50;;;;;;;6.99;100.00;99970.47;11063801;26;20418;-68
2024/04/15 13:28:50;;;;;;;1.50;1.40;;;;;;;7.36;100.00;99989.94;11063404;26;20294;-67
2024/04/15 13:33:51;;;;;;;0.52;0.52;;;;;;;7.90;100.00;99994.53;11064171;26;19989;-69
2024/04/15 13:38:52;;;;;;;0.52;0.52;;;;;;;8.15;100.00;100001.03;11064589;26;20047;-70
2024/04/15 13:43:52;;;;;;;0.50;0.50;;;;;;;9.50;100.00;100006.22;11061984;26;20001;-69
2024/04/15 13:48:53;;;;;;;0.50;0.50;;;;;;;10.36;100.00;100026.69;11063054;26;19999;-68
2024/04/15 13:53:53;;;;;;;0.40;0.40;;;;;;;9.79;100.00;100021.09;11063503;26;20004;-70
2024/04/15 13:58:53;;;;;;;0.38;0.38;;;;;;;9.53;100.00;100009.34;10995229;26;20012;-70
2024/04/15 14:03:54;;;;;;;0.38;0.38;;;;;;;9.20;100.00;100028.34;11061870;26;20405;-69
2024/04/15 14:08:55;;;;;;;0.40;0.40;;;;;;;9.24;100.00;100028.75;11061068;26;19997;-70
2024/04/15 14:13:55;;;;;;;0.47;0.47;;;;;;;9.30;100.00;100027.91;11063115;26;20064;-70
2024/04/15 14:18:56;;;;;;;0.65;0.65;;;;;;;9.83;100.00;100037.72;11063115;26;20093;-71
2024/04/15 14:23:56;;;;;;;0.50;0.50;;;;;;;9.86;100.00;100021.94;11063039;26;19997;-70
2024/04/15 14:28:57;;;;;;;0.77;0.77;;;;;;;9.64;100.00;100044.88;11062308;26;20004;-71
2024/04/15 14:33:57;;;;;;;2.45;1.83;;;;;;;10.06;100.00;100037.25;11061557;26;19988;-71
2024/04/15 14:38:58;;;;;;;0.30;0.30;;;;;;;9.72;100.00;100029.25;11061366;26;20009;-71
2024/04/15 14:43:58;;;;;;;0.30;0.30;;;;;;;10.29;100.00;100050.25;10999571;26;20027;-71
2024/04/15 14:48:59;;;;;;;0.95;0.95;;;;;;;10.70;100.00;100057.91;11060196;26;19992;-71
2024/04/15 14:53:59;;;;;;;0.60;0.60;;;;;;;9.39;100.00;100055.53;11031822;26;20007;-70
2024/04/15 14:58:59;;;;;;;0.30;0.30;;;;;;;8.92;100.00;100057.44;11061738;26;20067;-70
2024/04/15 15:04:00;;;;;;;0.40;0.40;;;;;;;8.83;100.00;100065.72;11061837;26;20008;-70
2024/04/15 15:09:01;;;;;;;0.40;0.40;;;;;;;9.09;100.00;100072.16;11061619;26;20437;-70
2024/04/15 15:14:02;;;;;;;12.70;2.78;;;;;;;9.37;100.00;100061.13;11062283;26;20001;-69
2024/04/15 15:19:02;;;;;;;3.97;2.33;;;;;;;9.38;100.00;100078.19;11059960;26;20001;-69
2024/04/15 15:24:03;;;;;;;9.95;3.35;;;;;;;9.66;100.00;100092.28;11060284;26;20001;-69
2024/04/15 15:29:05;;;;;;;4.95;2.35;;;;;;;9.49;100.00;100096.47;11060207;26;19997;-69
2024/04/15 15:34:06;;;;;;;3.75;2.47;;;;;;;9.53;100.00;100098.53;11061305;26;19997;-69
2024/04/15 15:39:06;;;;;;;2.78;1.83;;;;;;;9.26;100.00;100110.41;11060595;26;20433;-69
2024/04/15 15:44:06;;;;;;;4.45;2.40;;;;;;;8.94;100.00;100110.19;11059611;26;19996;-69
2024/04/15 15:49:07;;;;;;;12.50;3.60;;;;;;;8.81;100.00;100113.72;11060512;26;20328;-69
2024/04/15 15:54:07;;;;;;;9.80;3.15;;;;;;;8.78;100.00;100126.78;11059168;26;20012;-69
2024/04/15 15:59:09;;;;;;;7.63;3.17;;;;;;;8.50;100.00;100095.38;11060820;26;20417;-69
2024/04/15 16:04:10;;;;;;;10.10;2.53;;;;;;;8.16;100.00;100136.72;11059314;26;20012;-69
2024/04/15 16:09:10;;;;;;;6.05;1.45;;;;;;;7.76;100.00;100154.56;11061952;26;20001;-68
2024/04/15 16:14:11;;;;;;;11.05;2.15;;;;;;;7.99;100.00;100148.88;11090009;26;19997;-68
2024/04/15 16:19:11;;;;;;;2.88;1.02;;;;;;;8.51;100.00;100142.06;11058209;26;20026;-68
2024/04/15 16:24:12;;;;;;;7.20;2.20;;;;;;;8.34;100.00;100144.28;11060226;26;19997;-68
2024/04/15 16:29:12;;;;;;;7.47;2.47;;;;;;;8.06;100.00;100139.78;11062149;26;20071;-68
2024/04/15 16:34:12;;;;;;;2.28;1.67;;;;;;;7.98;100.00;100137.25;11066169;26;19997;-68
2024/04/15 16:39:13;;;;;;;3.05;2.05;;;;;;;8.04;100.00;100143.69;11065499;26;20008;-68
2024/04/15 16:44:13;;;;;;;6.68;2.30;;;;;;;7.95;100.00;100134.97;11063901;26;20424;-68
2024/04/15 16:49:14;;;;;;;3.53;2.55;;;;;;;7.93;100.00;100137.00;11063084;26;20005;-68
2024/04/15 16:54:14;;;;;;;3.38;1.92;;;;;;;7.95;100.00;100136.84;11065449;26;20013;-68
2024/04/15 16:59:15;;;;;;;3.00;2.20;;;;;;;8.09;100.00;100141.25;11064802;26;19997;-68
2024/04/15 17:04:15;;;;;;;3.78;1.67;;;;;;;8.24;100.00;100146.50;11064945;26;20012;-68
2024/04/15 17:09:16;;;;;;;5.00;2.58;;;;;;;8.34;100.00;100142.41;11064870;26;20009;-68
2024/04/15 17:14:16;;;;;;;8.25;3.75;;;;;;;8.41;100.00;100141.63;11066330;26;20012;-70
2024/04/15 17:19:17;;;;;;;9.70;3.88;;;;;;;8.50;100.00;100141.25;11065375;26;20024;-70
2024/04/15 17:24:17;;;;;;;5.32;2.17;;;;;;;8.38;100.00;100145.56;11065390;26;19997;-70
2024/04/15 17:29:18;;;;;;;5.70;2.33;;;;;;;8.13;100.00;100143.31;11065551;26;20305;-70
2024/04/15 17:34:18;;;;;;;4.28;1.63;;;;;;;8.09;100.00;100144.78;11065797;26;20001;-70
2024/04/15 17:39:18;;;;;;;1.35;1.35;;;;;;;7.73;100.00;100131.50;11065091;26;20448;-69
2024/04/15 17:44:19;;;;;;;3.83;1.98;;;;;;;7.47;100.00;100129.47;11063050;26;20005;-69
2024/04/15 17:49:20;;;;;;;10.35;1.50;;;;;;;7.39;100.00;100124.22;11064799;26;20000;-69
2024/04/15 17:54:20;;;;;;;1.67;1.40;;;;;;;7.35;100.00;100131.88;11062162;26;20005;-70
2024/04/15 17:59:20;;;;;;;3.80;1.88;;;;;;;7.32;100.00;100134.13;11062604;26;20008;-70
2024/04/15 18:04:21;;;;;;;4.88;2.72;;;;;;;7.31;100.00;100127.09;11063989;26;20013;-69
2024/04/15 18:09:21;;;;;;;12.35;3.55;;;;;;;7.33;100.00;100138.47;11061706;26;20008;-69
2024/04/15 18:14:22;;;;;;;3.08;2.22;;;;;;;7.54;100.00;100148.38;11062149;26;20088;-69
2024/04/15 18:19:22;;;;;;;15.95;3.38;;;;;;;7.74;100.00;100135.88;11063214;26;20001;-69
2024/04/15 18:24:27;;;;;;;7.78;3.72;;;;;;;7.87;100.00;100135.13;11062389;26;19997;-69
2024/04/15 18:29:27;;;;;;;5.78;3.05;;;;;;;7.98;100.00;100131.03;11062540;26;20478;-69
2024/04/15 18:34:27;;;;;;;12.73;3.40;;;;;;;8.06;100.00;100144.34;11063002;26;20041;-69
2024/04/15 18:39:28;;;;;;;13.07;3.92;;;;;;;8.22;100.00;100159.34;11061274;26;20001;-69
2024/04/15 18:44:28;;;;;;;13.35;3.55;;;;;;;8.18;100.00;100145.44;11059501;26;20383;-69
2024/04/15 18:49:29;;;;;;;10.30;3.55;;;;;;;8.16;100.00;100167.19;11059962;26;20004;-69
2024/04/15 18:54:29;;;;;;;4.93;2.35;;;;;;;8.12;100.00;100152.47;11061498;26;20001;-69
2024/04/15 18:59:30;;;;;;;14.25;3.42;;;;;;;7.90;100.00;100177.84;11061095;26;20011;-68
2024/04/15 19:04:30;;;;;;;16.58;4.68;;;;;;;7.84;100.00;100189.41;11060926;26;20067;-70
2024/04/15 19:09:31;;;;;;;8.95;2.92;;;;;;;7.98;100.00;100175.00;11061036;26;20008;-69
2024/04/15 19:14:31;;;;;;;10.55;2.70;;;;;;;7.93;100.00;100188.25;11058778;26;20012;-68
2024/04/15 19:19:31;;;;;;;5.60;3.60;;;;;;;7.86;100.00;100181.97;11060063;26;20424;-67
2024/04/15 19:24:32;;;;;;;11.88;3.05;;;;;;;7.84;100.00;100171.38;11059853;26;20003;-70
2024/04/15 19:29:32;;;;;;;10.10;3.15;;;;;;;7.80;100.00;100185.47;11058379;26;20309;-69
2024/04/15 19:34:32;;;;;;;5.10;2.97;;;;;;;7.98;100.00;100188.50;11058656;26;19997;-68
2024/04/15 19:39:34;;;;;;;6.63;3.10;;;;;;;8.23;100.00;100185.28;11059326;26;20008;-68
2024/04/15 19:44:34;;;;;;;6.78;2.50;;;;;;;8.38;100.00;100189.53;11058108;26;19993;-69
2024/04/15 19:49:34;;;;;;;8.50;3.28;;;;;;;8.49;100.00;100193.56;11058356;26;20421;-69
2024/04/15 19:54:35;;;;;;;11.43;3.28;;;;;;;8.32;100.00;100192.19;11058877;26;20449;-68
2024/04/15 19:59:35;;;;;;;28.92;5.00;;;;;;;8.23;100.00;100196.94;11059284;26;20013;-69
2024/04/15 20:04:36;;;;;;;6.90;3.33;;;;;;;8.02;100.00;100187.06;11061441;26;20352;-69
2024/04/15 20:09:36;;;;;;;4.85;2.53;;;;;;;7.93;100.00;100191.75;11066105;26;20013;-68
2024/04/15 20:14:36;;;;;;;18.15;4.00;;;;;;;8.00;100.00;100185.56;11065135;26;20011;-67
2024/04/15 20:19:45;;;;;;;6.85;3.15;;;;;;;8.13;100.00;100188.34;11066987;26;20025;-68
2024/04/15 20:24:45;;;;;;;11.43;3.90;;;;;;;8.10;100.00;100175.25;11038345;26;20013;-70
2024/04/15 20:29:46;;;;;;;11.02;4.78;;;;;;;8.15;100.00;100191.69;11064058;26;20074;-69
2024/04/15 20:34:46;;;;;;;11.02;3.50;;;;;;;8.14;100.00;100184.63;11065057;26;20001;-70
2024/04/15 20:39:47;;;;;;;13.90;4.45;;;;;;;8.07;100.00;100187.31;11064295;26;20464;-69
2024/04/15 20:44:47;;;;;;;9.95;2.85;;;;;;;8.15;100.00;100203.31;11064245;26;20269;-69
2024/04/15 20:49:47;;;;;;;10.52;3.25;;;;;;;8.22;100.00;100187.16;11066359;26;20328;-69
2024/04/15 20:54:49;;;;;;;16.00;3.83;;;;;;;8.37;100.00;100204.03;11064928;26;20000;-70
2024/04/15 20:59:49;;;;;;;23.95;5.30;;;;;;;8.34;100.00;100204.44;11066113;26;20005;-70
2024/04/15 21:04:49;;;;;;;14.02;3.83;;;;;;;8.14;100.00;100198.13;11065568;26;20012;-69
2024/04/15 21:09:50;;;;;;;8.05;3.83;;;;;;;8.15;100.00;100203.31;11064349;26;20397;-69
2024/04/15 21:14:50;;;;;;;15.15;3.60;;;;;;;8.23;100.00;100206.88;11065607;26;20375;-70
2024/04/15 21:19:50;;;;;;;14.27;3.85;;;;;;;8.01;100.00;100196.19;11066448;26;20007;-69
2024/04/15 21:24:51;;;;;;;11.23;3.25;;;;;;;7.97;100.00;100219.16;11067301;26;19997;-69
2024/04/15 21:29:52;;;;;;;11.30;4.07;;;;;;;8.12;100.00;100219.88;11064962;26;20124;-69
2024/04/15 21:34:52;;;;;;;9.13;3.55;;;;;;;8.10;100.00;100218.41;11064869;26;19997;-69
2024/04/15 21:39:53;;;;;;;5.78;2.63;;;;;;;7.97;100.00;100210.25;11064652;26;20012;-68
2024/04/15 21:44:53;;;;;;;5.97;3.88;;;;;;;8.00;100.00;100216.06;11063252;26;20007;-69
2024/04/15 21:49:53;;;;;;;14.48;4.13;;;;;;;8.02;100.00;100202.41;11062428;26;20004;-68
2024/04/15 21:54:54;;;;;;;5.05;2.88;;;;;;;8.10;100.00;100213.00;11064137;26;19993;-68
2024/04/15 21:59:54;;;;;;;10.23;4.53;;;;;;;8.16;100.00;100209.53;11064573;26;19997;-68
2024/04/15 22:04:55;;;;;;;10.13;3.85;;;;;;;8.21;100.00;100212.47;11063073;26;20421;-69
2024/04/15 22:09:56;;;;;;;9.05;2.47;;;;;;;8.34;100.00;100209.00;11064037;26;20009;-69
2024/04/15 22:14:56;;;;;;;17.38;3.40;;;;;;;8.37;100.00;100211.31;11063807;26;20116;-69
2024/04/15 22:19:56;;;;;;;16.08;3.05;;;;;;;8.39;100.00;100203.88;11063050;26;20000;-68
2024/04/15 22:24:57;;;;;;;12.38;3.25;;;;;;;8.42;100.00;100205.34;11060151;26;20004;-68
2024/04/15 22:29:58;;;;;;;19.05;4.82;;;;;;;8.40;100.00;100192.06;11063064;26;20011;-68
2024/04/15 22:34:59;;;;;;;7.43;3.28;;;;;;;8.40;100.00;100197.47;11063582;26;20067;-69
2024/04/15 22:40:00;;;;;;;7.32;2.33;;;;;;;8.36;100.00;100188.91;11062654;26;20001;-69
2024/04/15 22:45:01;;;;;;;3.30;1.85;;;;;;;8.43;100.00;100194.34;11062997;26;20005;-69
2024/04/15 22:50:01;;;;;;;11.40;3.55;;;;;;;8.46;100.00;100185.88;11060971;26;20009;-69